createdAt,value
2019-05-19T00:01:47.715Z,33.67
2019-05-19T00:04:17.793Z,35.63
2019-05-19T00:06:46.885Z,35.47
2019-05-19T00:09:16.690Z,35.03
2019-05-19T00:11:46.302Z,34.47
2019-05-19T00:14:15.456Z,36.63
2019-05-19T00:16:44.511Z,35.57
2019-05-19T00:19:25.725Z,34.37
2019-05-19T00:21:44.799Z,34.20
2019-05-19T00:24:13.877Z,35.17
2019-05-19T00:26:43.723Z,35.60
2019-05-19T00:29:12.847Z,35.60
2019-05-19T00:31:42.057Z,35.53
2019-05-19T00:34:13.194Z,34.40
2019-05-19T00:36:42.371Z,36.53
2019-05-19T00:39:11.461Z,35.67
2019-05-19T00:41:40.752Z,36.20
2019-05-19T00:44:09.750Z,37.27
2019-05-19T00:46:38.821Z,36.57
2019-05-19T00:49:08.243Z,36.73
2019-05-19T00:51:37.784Z,37.03
2019-05-19T00:54:06.887Z,37.63
2019-05-19T00:56:36.656Z,37.43
2019-05-19T00:59:06.321Z,39.13
2019-05-19T01:01:35.437Z,40.63
2019-05-19T01:04:06.312Z,38.87
2019-05-19T01:06:35.497Z,41.03
2019-05-19T01:09:06.134Z,38.37
2019-05-19T01:11:35.414Z,39.03
2019-05-19T01:14:04.759Z,38.40
2019-05-19T01:16:33.828Z,39.03
2019-05-19T01:19:03.208Z,39.90
2019-05-19T01:21:34.082Z,39.93
2019-05-19T01:24:03.220Z,39.40
2019-05-19T01:26:32.525Z,41.13
2019-05-19T01:29:01.598Z,39.20
2019-05-19T01:31:30.722Z,39.73
2019-05-19T01:34:00.045Z,39.30
2019-05-19T01:36:29.200Z,39.90
2019-05-19T01:38:58.268Z,39.97
2019-05-19T01:41:27.639Z,39.43
2019-05-19T01:43:57.214Z,40.50
2019-05-19T01:46:26.586Z,41.13
2019-05-19T01:48:55.838Z,40.90
2019-05-19T01:51:24.942Z,40.20
2019-05-19T01:53:54.008Z,39.33
2019-05-19T01:56:23.253Z,38.10
2019-05-19T01:58:52.347Z,38.30
2019-05-19T02:01:21.364Z,38.20
2019-05-19T02:03:51.839Z,37.93
2019-05-19T02:06:20.991Z,37.83
2019-05-19T02:08:50.057Z,36.67
2019-05-19T02:11:19.499Z,35.53
2019-05-19T02:13:48.640Z,37.70
2019-05-19T02:16:17.815Z,37.13
2019-05-19T02:18:47.133Z,37.37
2019-05-19T02:21:16.113Z,35.07
2019-05-19T02:23:45.308Z,38.60
2019-05-19T02:26:14.727Z,37.47
2019-05-19T02:28:43.815Z,38.70
2019-05-19T02:31:12.906Z,38.17
2019-05-19T02:33:42.428Z,39.90
2019-05-19T02:36:11.513Z,38.70
2019-05-19T02:38:40.567Z,38.30
2019-05-19T02:41:12.994Z,38.47
2019-05-19T02:43:42.589Z,39.83
2019-05-19T02:46:12.264Z,41.23
2019-05-19T02:48:42.245Z,41.47
2019-05-19T02:51:13.539Z,41.80
2019-05-19T02:53:44.717Z,42.30
2019-05-19T02:56:14.485Z,42.63
2019-05-19T02:58:44.590Z,42.77
2019-05-19T03:01:14.075Z,41.33
2019-05-19T03:03:43.073Z,42.53
2019-05-19T03:06:12.142Z,40.73
2019-05-19T03:08:41.386Z,41.50
2019-05-19T03:11:10.509Z,41.03
2019-05-19T03:13:41.014Z,41.37
2019-05-19T03:16:10.327Z,40.93
2019-05-19T03:18:39.508Z,39.27
2019-05-19T03:21:11.440Z,41.37
2019-05-19T03:23:39.721Z,39.73
2019-05-19T03:26:08.787Z,40.40
2019-05-19T03:28:38.013Z,41.50
2019-05-19T03:31:18.345Z,41.40
2019-05-19T03:33:48.673Z,40.30
2019-05-19T03:36:17.820Z,39.80
2019-05-19T03:38:47.073Z,39.93
2019-05-19T03:41:16.195Z,39.60
2019-05-19T03:43:45.272Z,39.73
2019-05-19T03:46:14.591Z,41.13
2019-05-19T03:48:43.632Z,40.80
2019-05-19T03:51:29.133Z,40.93
2019-05-19T03:53:45.212Z,39.27
2019-05-19T03:56:14.464Z,38.90
2019-05-19T03:58:43.487Z,39.27
2019-05-19T04:01:12.706Z,36.57
2019-05-19T04:03:43.202Z,36.27
2019-05-19T04:06:12.295Z,38.10
2019-05-19T04:08:41.642Z,35.17
2019-05-19T04:11:10.704Z,34.77
2019-05-19T04:13:39.781Z,34.47
2019-05-19T04:16:09.129Z,33.43
2019-05-19T04:18:38.300Z,32.60
2019-05-19T04:21:07.290Z,33.27
2019-05-19T04:23:36.554Z,31.50
2019-05-19T04:26:05.619Z,31.43
2019-05-19T04:28:34.638Z,31.53
2019-05-19T04:31:04.034Z,30.13
2019-05-19T04:33:33.144Z,31.40
2019-05-19T04:36:02.213Z,30.20
2019-05-19T04:38:31.379Z,30.80
2019-05-19T04:41:00.533Z,30.03
2019-05-19T04:43:29.581Z,29.63
2019-05-19T04:45:58.870Z,28.87
2019-05-19T04:48:27.973Z,29.40
2019-05-19T04:50:57.047Z,28.57
2019-05-19T04:53:26.315Z,29.10
2019-05-19T04:55:55.322Z,27.93
2019-05-19T04:58:24.399Z,29.13
2019-05-19T05:00:53.782Z,28.47
2019-05-19T05:03:22.857Z,28.47
2019-05-19T05:05:52.004Z,29.40
2019-05-19T05:08:29.885Z,30.17
2019-05-19T05:10:52.299Z,29.53
2019-05-19T05:13:21.363Z,29.47
2019-05-19T05:15:50.694Z,28.43
2019-05-19T05:18:19.750Z,30.20
2019-05-19T05:20:48.830Z,30.33
2019-05-19T05:23:18.128Z,30.10
2019-05-19T05:25:47.254Z,30.60
2019-05-19T05:28:16.330Z,30.70
2019-05-19T05:30:45.582Z,31.17
2019-05-19T05:33:14.582Z,29.93
2019-05-19T05:35:43.694Z,30.00
2019-05-19T05:38:13.056Z,30.30
2019-05-19T05:40:41.999Z,29.03
2019-05-19T05:43:11.227Z,30.40
2019-05-19T05:45:40.650Z,29.40
2019-05-19T05:48:09.723Z,30.10
2019-05-19T05:50:38.776Z,29.47
2019-05-19T05:53:08.074Z,29.73
2019-05-19T05:55:37.228Z,29.77
2019-05-19T05:58:06.261Z,28.87
2019-05-19T06:00:35.645Z,29.10
2019-05-19T06:03:04.748Z,29.13
2019-05-19T06:05:33.900Z,28.77
2019-05-19T06:08:03.235Z,27.60
2019-05-19T06:10:32.419Z,27.57
2019-05-19T06:13:01.739Z,27.50
2019-05-19T06:15:30.978Z,28.47
2019-05-19T06:18:00.116Z,28.10
2019-05-19T06:20:29.200Z,27.17
2019-05-19T06:23:42.458Z,27.17
2019-05-19T06:26:11.560Z,27.33
2019-05-19T06:28:40.683Z,28.00
2019-05-19T06:31:10.166Z,28.00
2019-05-19T06:33:39.235Z,28.50
2019-05-19T06:36:08.327Z,29.57
2019-05-19T06:38:37.647Z,28.70
2019-05-19T06:41:06.778Z,28.80
2019-05-19T06:43:35.878Z,28.30
2019-05-19T06:46:05.372Z,28.40
2019-05-19T06:48:34.462Z,27.67
2019-05-19T06:51:03.566Z,28.93
2019-05-19T06:53:32.837Z,28.90
2019-05-19T06:56:01.978Z,29.80
2019-05-19T06:58:31.939Z,27.20
2019-05-19T07:01:01.350Z,28.20
2019-05-19T07:03:30.479Z,27.73
2019-05-19T07:05:59.418Z,26.73
2019-05-19T07:08:28.884Z,26.70
2019-05-19T07:10:58.042Z,27.83
2019-05-19T07:13:27.145Z,27.10
2019-05-19T07:15:57.657Z,27.17
2019-05-19T07:18:26.663Z,26.97
2019-05-19T07:20:55.750Z,25.70
2019-05-19T07:23:28.256Z,27.03
2019-05-19T07:25:55.770Z,25.37
2019-05-19T07:28:24.790Z,26.10
2019-05-19T07:30:54.202Z,25.67
2019-05-19T07:33:23.314Z,25.23
2019-05-19T07:35:52.368Z,25.77
2019-05-19T07:38:21.879Z,23.40
2019-05-19T07:40:51.048Z,24.40
2019-05-19T07:43:23.153Z,23.27
2019-05-19T07:45:53.707Z,26.07
2019-05-19T07:48:22.794Z,25.07
2019-05-19T07:50:52.156Z,22.63
2019-05-19T07:53:21.303Z,23.37
2019-05-19T07:55:50.439Z,24.10
2019-05-19T07:58:20.206Z,23.10
2019-05-19T08:00:49.340Z,21.60
2019-05-19T08:03:18.505Z,22.87
2019-05-19T08:05:47.851Z,22.63
2019-05-19T08:08:16.917Z,22.67
2019-05-19T08:10:46.147Z,23.77
2019-05-19T08:13:15.452Z,22.73
2019-05-19T08:15:44.521Z,21.57
2019-05-19T08:18:13.548Z,22.70
2019-05-19T08:20:42.676Z,21.87
2019-05-19T08:23:11.935Z,21.47
2019-05-19T08:25:41.077Z,21.93
2019-05-19T08:28:11.779Z,22.40
2019-05-19T08:30:40.953Z,21.07
2019-05-19T08:33:10.107Z,22.00
2019-05-19T08:35:39.367Z,21.03
2019-05-19T08:38:08.467Z,21.70
2019-05-19T08:40:37.477Z,20.73
2019-05-19T08:43:06.958Z,23.37
2019-05-19T08:45:36.114Z,22.43
2019-05-19T08:48:05.351Z,23.03
2019-05-19T08:50:34.709Z,22.90
2019-05-19T08:53:03.881Z,22.67
2019-05-19T08:55:34.111Z,24.63
2019-05-19T08:58:03.714Z,23.27
2019-05-19T09:00:37.604Z,23.23
2019-05-19T09:03:03.779Z,23.00
2019-05-19T09:05:33.133Z,22.90
2019-05-19T09:08:02.211Z,23.00
2019-05-19T09:10:31.209Z,23.50
2019-05-19T09:13:00.475Z,22.50
2019-05-19T09:15:29.750Z,21.87
2019-05-19T09:17:58.856Z,21.87
2019-05-19T09:20:28.197Z,22.03
2019-05-19T09:22:57.291Z,21.87
2019-05-19T09:25:26.433Z,21.20
2019-05-19T09:27:55.796Z,20.40
2019-05-19T09:30:24.888Z,20.40
2019-05-19T09:32:54.062Z,19.73
2019-05-19T09:35:23.476Z,20.57
2019-05-19T09:37:52.577Z,20.43
2019-05-19T09:40:21.758Z,20.50
2019-05-19T09:42:51.055Z,20.10
2019-05-19T09:45:20.148Z,18.70
2019-05-19T09:47:49.212Z,19.40
2019-05-19T09:50:18.672Z,18.37
2019-05-19T09:52:47.767Z,19.50
2019-05-19T09:55:16.846Z,18.17
2019-05-19T09:57:46.199Z,18.77
2019-05-19T10:00:15.615Z,19.70
2019-05-19T10:02:44.747Z,19.87
2019-05-19T10:05:14.165Z,20.93
2019-05-19T10:07:43.415Z,19.67
2019-05-19T10:10:15.989Z,20.37
2019-05-19T10:12:45.194Z,20.07
2019-05-19T10:15:14.675Z,20.27
2019-05-19T10:17:43.939Z,19.70
2019-05-19T10:20:14.705Z,18.80
2019-05-19T10:22:43.783Z,19.23
2019-05-19T10:25:23.226Z,19.90
2019-05-19T10:27:45.996Z,19.80
2019-05-19T10:30:16.498Z,20.20
2019-05-19T10:32:45.582Z,18.63
2019-05-19T10:35:14.774Z,19.30
2019-05-19T10:37:43.999Z,19.50
2019-05-19T10:40:13.068Z,19.07
2019-05-19T10:42:42.252Z,19.87
2019-05-19T10:45:11.957Z,19.00
2019-05-19T10:47:41.070Z,21.07
2019-05-19T10:50:10.500Z,20.17
2019-05-19T10:52:39.886Z,18.77
2019-05-19T10:55:08.959Z,20.90
2019-05-19T10:57:38.042Z,20.53
2019-05-19T11:00:07.987Z,20.57
2019-05-19T11:02:37.036Z,20.43
2019-05-19T11:05:06.580Z,19.83
2019-05-19T11:07:35.884Z,21.73
2019-05-19T11:10:05.332Z,21.03
2019-05-19T11:12:34.430Z,20.20
2019-05-19T11:15:03.911Z,20.87
2019-05-19T11:17:33.107Z,20.97
2019-05-19T11:20:02.585Z,20.87
2019-05-19T11:22:31.787Z,20.87
2019-05-19T11:25:00.886Z,20.93
2019-05-19T11:27:29.978Z,20.77
2019-05-19T11:29:59.290Z,20.33
2019-05-19T11:32:28.367Z,21.17
2019-05-19T11:34:57.462Z,20.70
2019-05-19T11:37:26.795Z,19.77
2019-05-19T11:39:55.768Z,22.23
2019-05-19T11:42:24.858Z,21.87
2019-05-19T11:44:54.273Z,22.20
2019-05-19T11:47:23.352Z,20.80
2019-05-19T11:49:52.479Z,21.63
2019-05-19T11:52:21.751Z,21.90
2019-05-19T11:54:53.775Z,22.27
2019-05-19T11:57:23.069Z,22.33
2019-05-19T11:59:52.159Z,23.20
2019-05-19T12:02:21.225Z,22.20
2019-05-19T12:04:50.749Z,23.13
2019-05-19T12:07:19.945Z,24.33
2019-05-19T12:09:49.111Z,22.97
2019-05-19T12:13:14.211Z,24.60
2019-05-19T12:15:43.289Z,24.20
2019-05-19T12:18:21.162Z,26.10
2019-05-19T12:20:50.328Z,25.53
2019-05-19T12:23:19.496Z,26.03
2019-05-19T12:25:49.008Z,23.77
2019-05-19T12:28:20.318Z,26.53
2019-05-19T12:30:49.543Z,25.10
2019-05-19T12:33:18.857Z,27.10
2019-05-19T12:35:47.942Z,26.23
2019-05-19T12:38:17.192Z,25.63
2019-05-19T12:40:46.676Z,28.13
2019-05-19T12:43:18.569Z,25.17
2019-05-19T12:45:48.013Z,26.47
2019-05-19T12:48:17.428Z,27.23
2019-05-19T12:50:46.524Z,28.20
2019-05-19T12:53:15.926Z,26.87
2019-05-19T12:55:45.024Z,25.50
2019-05-19T12:58:14.151Z,27.37
2019-05-19T13:00:43.453Z,28.63
2019-05-19T13:03:12.519Z,28.00
2019-05-19T13:05:41.524Z,27.10
2019-05-19T13:08:11.615Z,27.20
2019-05-19T13:10:41.040Z,27.30
2019-05-19T13:13:10.147Z,26.93
2019-05-19T13:15:39.428Z,26.23
2019-05-19T13:18:08.616Z,27.43
2019-05-19T13:20:37.716Z,26.80
2019-05-19T13:23:06.946Z,27.43
2019-05-19T13:25:36.088Z,27.53
2019-05-19T13:28:05.231Z,27.37
2019-05-19T13:30:34.618Z,25.03
2019-05-19T13:33:03.721Z,25.37
2019-05-19T13:35:32.920Z,26.40
2019-05-19T13:38:02.186Z,25.37
2019-05-19T13:40:31.275Z,26.13
2019-05-19T13:43:00.305Z,26.50
2019-05-19T13:45:29.481Z,26.80
2019-05-19T13:47:58.594Z,27.30
2019-05-19T13:50:28.955Z,25.87
2019-05-19T13:52:58.773Z,26.30
2019-05-19T13:55:28.074Z,25.53
2019-05-19T13:57:57.117Z,26.00
2019-05-19T14:00:26.280Z,26.63
2019-05-19T14:02:55.347Z,25.77
2019-05-19T14:05:24.416Z,24.53
2019-05-19T14:07:53.691Z,24.67
2019-05-19T14:10:22.675Z,24.23
2019-05-19T14:12:51.795Z,25.87
2019-05-19T14:15:21.093Z,24.40
2019-05-19T14:17:50.275Z,24.57
2019-05-19T14:20:19.357Z,26.37
2019-05-19T14:22:48.685Z,25.70
2019-05-19T14:25:17.760Z,25.33
2019-05-19T14:27:48.361Z,27.23
2019-05-19T14:30:17.883Z,26.63
2019-05-19T14:32:50.139Z,25.10
2019-05-19T14:35:19.477Z,25.23
2019-05-19T14:37:48.587Z,26.53
2019-05-19T14:40:17.852Z,25.13
2019-05-19T14:42:51.380Z,24.20
2019-05-19T14:45:20.778Z,22.90
2019-05-19T14:47:49.902Z,23.97
2019-05-19T14:50:19.632Z,23.03
2019-05-19T14:52:48.757Z,21.83
2019-05-19T14:55:20.039Z,22.27
2019-05-19T14:57:49.054Z,22.17
2019-05-19T15:00:21.298Z,22.33
2019-05-19T15:02:50.400Z,23.20
2019-05-19T15:05:19.508Z,21.53
2019-05-19T15:07:48.822Z,21.33
2019-05-19T15:10:18.235Z,21.47
2019-05-19T15:12:47.807Z,20.33
2019-05-19T15:15:17.495Z,21.13
2019-05-19T15:17:46.486Z,20.47
2019-05-19T15:20:15.819Z,21.37
2019-05-19T15:22:45.234Z,21.13
2019-05-19T15:25:14.714Z,19.27
2019-05-19T15:27:43.807Z,20.20
2019-05-19T15:30:14.014Z,20.80
2019-05-19T15:32:43.213Z,21.30
2019-05-19T15:35:13.514Z,20.10
2019-05-19T15:37:42.901Z,18.73
2019-05-19T15:40:12.197Z,19.20
2019-05-19T15:42:41.327Z,18.50
2019-05-19T15:45:12.184Z,18.37
2019-05-19T15:47:41.189Z,17.70
2019-05-19T15:50:10.653Z,19.60
2019-05-19T15:52:39.983Z,18.97
2019-05-19T15:55:09.203Z,19.17
2019-05-19T15:57:38.348Z,20.83
2019-05-19T16:00:08.255Z,18.77
2019-05-19T16:02:37.513Z,18.73
2019-05-19T16:05:06.856Z,20.00
2019-05-19T16:07:36.152Z,19.33
2019-05-19T16:10:06.175Z,18.80
2019-05-19T16:12:40.215Z,18.03
2019-05-19T16:15:09.937Z,18.00
2019-05-19T16:17:39.103Z,19.60
2019-05-19T16:20:08.530Z,18.33
2019-05-19T16:22:37.649Z,18.80
2019-05-19T16:25:07.328Z,18.70
2019-05-19T16:27:36.699Z,18.87
2019-05-19T16:30:06.340Z,17.20
2019-05-19T16:32:35.417Z,17.87
2019-05-19T16:35:04.735Z,20.13
2019-05-19T16:37:33.771Z,18.17
2019-05-19T16:40:02.920Z,19.53
2019-05-19T16:42:32.325Z,18.17
2019-05-19T16:45:01.409Z,18.13
2019-05-19T16:47:30.527Z,16.83
2019-05-19T16:49:59.931Z,16.83
2019-05-19T16:52:28.969Z,16.33
2019-05-19T16:55:21.675Z,17.50
2019-05-19T16:57:50.806Z,16.50
2019-05-19T17:00:20.167Z,15.63
2019-05-19T17:02:49.456Z,15.60
2019-05-19T17:05:18.956Z,16.13
2019-05-19T17:07:48.133Z,16.00
2019-05-19T17:10:19.067Z,15.03
2019-05-19T17:12:50.962Z,16.53
2019-05-19T17:15:20.380Z,16.23
2019-05-19T17:17:49.457Z,15.93
2019-05-19T17:20:18.751Z,16.47
2019-05-19T17:22:47.940Z,15.27
2019-05-19T17:25:17.167Z,15.83
2019-05-19T17:27:46.276Z,15.97
2019-05-19T17:30:16.481Z,15.87
2019-05-19T17:32:45.588Z,14.80
2019-05-19T17:35:15.181Z,15.27
2019-05-19T17:37:44.410Z,13.97
2019-05-19T17:40:15.309Z,14.90
2019-05-19T17:42:44.412Z,15.00
2019-05-19T17:45:14.015Z,14.83
2019-05-19T17:47:43.142Z,14.47
2019-05-19T17:50:20.822Z,14.13
2019-05-19T17:52:49.843Z,13.80
2019-05-19T17:55:19.078Z,14.07
2019-05-19T17:57:48.841Z,14.57
2019-05-19T18:00:22.807Z,14.27
2019-05-19T18:02:52.031Z,14.97
2019-05-19T18:05:21.110Z,14.03
2019-05-19T18:07:50.363Z,13.67
2019-05-19T18:10:19.615Z,14.97
2019-05-19T18:12:48.728Z,13.90
2019-05-19T18:15:17.941Z,14.17
2019-05-19T18:17:47.184Z,13.20
2019-05-19T18:20:23.686Z,13.73
2019-05-19T18:22:48.980Z,12.93
2019-05-19T18:25:18.098Z,13.27
2019-05-19T18:27:47.352Z,13.83
2019-05-19T18:30:16.999Z,13.30
2019-05-19T18:32:46.092Z,14.37
2019-05-19T18:35:15.229Z,15.17
2019-05-19T18:37:44.588Z,13.87
2019-05-19T18:40:14.892Z,14.13
2019-05-19T18:42:44.141Z,14.70
2019-05-19T18:45:14.024Z,15.10
2019-05-19T18:47:43.031Z,12.30
2019-05-19T18:50:12.428Z,13.80
2019-05-19T18:52:41.602Z,12.77
2019-05-19T18:55:10.860Z,13.80
2019-05-19T18:57:39.936Z,13.20
2019-05-19T19:00:09.572Z,12.37
2019-05-19T19:02:38.784Z,12.87
2019-05-19T19:05:08.080Z,12.17
2019-05-19T19:07:54.944Z,12.33
2019-05-19T19:10:24.020Z,14.60
2019-05-19T19:12:53.116Z,12.50
2019-05-19T19:15:22.356Z,12.07
2019-05-19T19:17:51.463Z,12.73
2019-05-19T19:20:20.628Z,13.20
2019-05-19T19:22:49.936Z,12.43
2019-05-19T19:25:19.014Z,13.00
2019-05-19T19:27:48.111Z,14.07
2019-05-19T19:30:17.610Z,13.47
2019-05-19T19:32:46.800Z,13.90
2019-05-19T19:35:16.291Z,13.23
2019-05-19T19:37:45.567Z,14.27
2019-05-19T19:40:16.270Z,13.77
2019-05-19T19:42:45.384Z,14.13
2019-05-19T19:45:14.782Z,13.90
2019-05-19T19:47:44.260Z,14.33
2019-05-19T19:50:13.453Z,13.43
2019-05-19T19:52:42.772Z,13.17
2019-05-19T19:55:12.173Z,13.37
2019-05-19T19:57:41.233Z,11.90
2019-05-19T20:00:18.300Z,14.50
2019-05-19T20:02:41.667Z,13.27
2019-05-19T20:05:10.949Z,13.47
2019-05-19T20:07:40.277Z,13.57
2019-05-19T20:10:09.490Z,11.87
2019-05-19T20:12:38.655Z,12.63
2019-05-19T20:15:08.072Z,11.43
2019-05-19T20:17:37.263Z,12.97
2019-05-19T20:20:06.485Z,11.37
2019-05-19T20:22:35.817Z,12.10
2019-05-19T20:25:05.317Z,13.17
2019-05-19T20:27:35.112Z,11.67
2019-05-19T20:30:04.911Z,12.10
2019-05-19T20:32:34.003Z,12.13
2019-05-19T20:35:03.283Z,12.47
2019-05-19T20:37:32.494Z,13.20
2019-05-19T20:40:01.663Z,13.50
2019-05-19T20:42:30.658Z,13.70
2019-05-19T20:44:59.900Z,14.17
2019-05-19T20:47:29.034Z,13.83
2019-05-19T20:49:58.099Z,14.00
2019-05-19T20:52:27.388Z,14.67
2019-05-19T20:54:56.551Z,14.70
2019-05-19T20:57:25.572Z,14.10
2019-05-19T21:00:00.036Z,14.20
2019-05-19T21:02:29.115Z,14.60
2019-05-19T21:05:00.640Z,14.97
2019-05-19T21:07:29.972Z,16.33
2019-05-19T21:09:59.106Z,15.97
2019-05-19T21:12:28.194Z,14.87
2019-05-19T21:14:57.367Z,15.30
2019-05-19T21:17:26.292Z,15.10
2019-05-19T21:19:55.375Z,15.67
2019-05-19T21:22:28.076Z,15.10
2019-05-19T21:24:57.177Z,14.97
2019-05-19T21:27:26.330Z,15.43
2019-05-19T21:29:55.531Z,14.63
2019-05-19T21:32:24.544Z,15.57
2019-05-19T21:34:55.721Z,15.33
2019-05-19T21:37:24.999Z,16.87
2019-05-19T21:39:54.095Z,16.03
2019-05-19T21:42:23.178Z,16.00
2019-05-19T21:44:52.486Z,17.30
2019-05-19T21:47:21.597Z,16.80
2019-05-19T21:49:50.670Z,16.33
2019-05-19T21:52:19.875Z,16.73
2019-05-19T21:54:48.809Z,16.07
2019-05-19T21:57:17.890Z,17.10
2019-05-19T21:59:46.930Z,17.23
2019-05-19T22:02:17.285Z,18.63
2019-05-19T22:04:49.349Z,18.00
2019-05-19T22:07:37.695Z,16.57
2019-05-19T22:10:06.961Z,16.87
2019-05-19T22:12:36.024Z,15.83
2019-05-19T22:15:05.463Z,16.87
2019-05-19T22:17:34.526Z,18.20
2019-05-19T22:20:03.653Z,16.83
2019-05-19T22:22:32.923Z,16.67
2019-05-19T22:25:01.929Z,16.93
2019-05-19T22:27:30.992Z,16.73
2019-05-19T22:30:00.206Z,17.00
2019-05-19T22:32:29.272Z,17.17
2019-05-19T22:35:01.981Z,16.50
2019-05-19T22:37:31.084Z,16.53
2019-05-19T22:40:02.623Z,16.40
2019-05-19T22:42:32.109Z,15.93
2019-05-19T22:45:01.094Z,16.20
2019-05-19T22:47:30.172Z,18.40
2019-05-19T22:49:59.372Z,16.87
2019-05-19T22:52:28.495Z,16.27
2019-05-19T22:54:57.553Z,16.17
2019-05-19T22:57:26.862Z,14.67
2019-05-19T22:59:55.866Z,15.77
2019-05-19T23:02:25.010Z,15.67
2019-05-19T23:04:55.239Z,15.63
2019-05-19T23:07:24.379Z,15.33
2019-05-19T23:09:53.360Z,13.83
2019-05-19T23:12:22.571Z,13.33
2019-05-19T23:14:51.634Z,13.60
2019-05-19T23:17:20.789Z,13.23
2019-05-19T23:19:49.933Z,13.70
2019-05-19T23:22:18.978Z,13.77
2019-05-19T23:24:47.979Z,13.20
2019-05-19T23:27:17.133Z,14.47
2019-05-19T23:29:46.208Z,14.87
2019-05-19T23:32:15.253Z,14.60
2019-05-19T23:34:44.528Z,13.80
2019-05-19T23:37:13.601Z,14.80
2019-05-19T23:39:42.668Z,13.90
2019-05-19T23:42:11.848Z,14.13
2019-05-19T23:44:40.933Z,13.50
2019-05-19T23:47:10.000Z,13.50
2019-05-19T23:49:39.166Z,13.73
2019-05-19T23:52:08.218Z,14.00
2019-05-19T23:54:37.537Z,13.00
2019-05-19T23:57:06.753Z,13.73
2019-05-19T23:59:35.895Z,14.03
